createdAt,value
2016-09-18T04:00:45.759Z,0
2016-09-18T04:01:11.292Z,0
2016-09-18T04:01:36.899Z,0
2016-09-18T04:02:02.461Z,0
2016-09-18T04:02:27.996Z,0
2016-09-18T04:02:53.553Z,0
2016-09-18T04:03:19.275Z,0
2016-09-18T04:03:44.829Z,0
2016-09-18T04:04:10.461Z,0
2016-09-18T04:04:36.032Z,0
2016-09-18T04:05:01.584Z,0
2016-09-18T04:05:27.162Z,0
2016-09-18T04:05:52.709Z,0
2016-09-18T04:06:19.106Z,0
2016-09-18T04:06:44.622Z,0
2016-09-18T04:07:10.202Z,0
2016-09-18T04:07:35.757Z,0
2016-09-18T04:08:01.314Z,0
2016-09-18T04:09:14.798Z,0
2016-09-18T04:09:40.374Z,0
2016-09-18T04:10:05.944Z,0
2016-09-18T04:10:31.584Z,0
2016-09-18T04:10:57.152Z,0
2016-09-18T04:11:22.723Z,0
2016-09-18T04:11:48.293Z,0
2016-09-18T04:12:13.933Z,0
2016-09-18T04:12:39.534Z,0
2016-09-18T04:13:05.115Z,0
2016-09-18T04:13:30.678Z,0
2016-09-18T04:13:56.261Z,0
2016-09-18T04:14:21.817Z,0
2016-09-18T04:14:47.354Z,0
2016-09-18T04:15:12.941Z,0
2016-09-18T04:15:38.559Z,0
2016-09-18T04:16:04.115Z,0
2016-09-18T04:16:29.677Z,0
2016-09-18T04:16:55.253Z,0
2016-09-18T04:17:20.827Z,0
2016-09-18T04:17:46.396Z,0
2016-09-18T04:18:11.964Z,0
2016-09-18T04:18:37.517Z,0
2016-09-18T04:19:03.074Z,0
2016-09-18T04:19:28.717Z,0
2016-09-18T04:19:54.319Z,0
2016-09-18T04:20:19.880Z,0
2016-09-18T04:20:45.445Z,0
2016-09-18T04:21:11.098Z,0
2016-09-18T04:21:36.717Z,0
2016-09-18T04:22:02.273Z,0
2016-09-18T04:22:27.835Z,0
2016-09-18T04:22:53.392Z,0
2016-09-18T04:23:18.937Z,0
2016-09-18T04:23:44.495Z,0
2016-09-18T04:24:10.044Z,0
2016-09-18T04:24:35.618Z,0
2016-09-18T04:25:01.186Z,0
2016-09-18T04:25:26.756Z,0
2016-09-18T04:25:52.308Z,0
2016-09-18T04:26:17.876Z,0
2016-09-18T04:26:43.457Z,0
2016-09-18T04:27:09.005Z,0
2016-09-18T04:27:34.553Z,0
2016-09-18T04:28:00.142Z,0
2016-09-18T04:28:25.732Z,0
2016-09-18T04:28:51.305Z,0
2016-09-18T04:29:16.870Z,0
2016-09-18T04:29:42.445Z,0
2016-09-18T04:30:08.011Z,0
2016-09-18T04:30:33.674Z,0
2016-09-18T04:30:59.232Z,0
2016-09-18T04:31:24.804Z,0
2016-09-18T04:31:50.353Z,0
2016-09-18T04:32:15.933Z,0
2016-09-18T04:32:41.509Z,0
2016-09-18T04:33:07.064Z,0
2016-09-18T04:33:32.654Z,0
2016-09-18T04:33:58.223Z,0
2016-09-18T04:34:23.787Z,0
2016-09-18T04:34:49.357Z,0
2016-09-18T04:35:14.933Z,0
2016-09-18T04:35:40.496Z,0
2016-09-18T04:36:06.203Z,0
2016-09-18T04:36:31.765Z,0
2016-09-18T04:36:57.413Z,0
2016-09-18T04:37:23.095Z,0
2016-09-18T04:37:48.657Z,0
2016-09-18T04:38:14.227Z,0
2016-09-18T04:38:39.818Z,0
2016-09-18T04:39:05.386Z,0
2016-09-18T04:39:30.974Z,0
2016-09-18T04:39:56.542Z,0
2016-09-18T04:40:22.097Z,0
2016-09-18T04:40:47.671Z,0
2016-09-18T04:41:13.226Z,0
2016-09-18T04:41:38.784Z,0
2016-09-18T04:42:04.402Z,0
2016-09-18T04:42:30.100Z,0
2016-09-18T04:42:55.638Z,0
2016-09-18T04:43:21.224Z,0
2016-09-18T04:43:46.823Z,0
2016-09-18T04:44:12.412Z,0
2016-09-18T04:44:38.011Z,0
2016-09-18T04:45:03.585Z,0
2016-09-18T04:45:29.214Z,0
2016-09-18T04:45:54.772Z,0
2016-09-18T04:46:20.406Z,0
2016-09-18T04:46:46.088Z,0
2016-09-18T04:47:11.818Z,0
2016-09-18T04:47:37.386Z,0
2016-09-18T04:48:02.942Z,0
2016-09-18T04:49:11.296Z,0
2016-09-18T04:49:36.852Z,0
2016-09-18T04:50:02.411Z,4
2016-09-18T04:50:27.980Z,4
2016-09-18T04:50:53.555Z,0
2016-09-18T04:51:19.128Z,0
2016-09-18T04:51:44.683Z,0
2016-09-18T04:52:10.249Z,0
2016-09-18T04:52:35.816Z,0
2016-09-18T04:53:01.369Z,0
2016-09-18T04:53:26.941Z,0
2016-09-18T04:53:52.521Z,0
2016-09-18T05:13:31.257Z,32
2016-09-18T05:13:56.859Z,32
2016-09-18T05:14:22.534Z,24
2016-09-18T05:14:48.091Z,68
2016-09-18T06:48:19.439Z,352
2016-09-18T06:48:45.005Z,348
2016-09-18T06:49:10.655Z,352
2016-09-18T06:50:13.823Z,120
2016-09-18T06:50:39.391Z,120
2016-09-18T06:51:04.942Z,120
2016-09-18T06:51:30.501Z,120
2016-09-18T06:51:56.092Z,120
2016-09-18T06:52:21.805Z,120
2016-09-18T06:52:47.532Z,124
2016-09-18T06:53:13.082Z,120
2016-09-18T06:53:38.667Z,120
2016-09-18T06:54:04.306Z,120
2016-09-18T06:54:29.885Z,124
2016-09-18T06:54:55.466Z,124
2016-09-18T06:55:21.048Z,120
2016-09-18T06:57:17.632Z,124
2016-09-18T06:57:43.255Z,120
2016-09-18T06:58:08.826Z,120
2016-09-18T06:58:34.463Z,124
2016-09-18T06:59:00.019Z,124
2016-09-18T06:59:25.607Z,124
2016-09-18T06:59:51.249Z,124
2016-09-18T07:00:16.842Z,124
2016-09-18T07:00:42.409Z,124
2016-09-18T07:01:07.956Z,124
2016-09-18T07:01:33.536Z,124
2016-09-18T07:01:59.101Z,124
2016-09-18T07:02:24.715Z,124
2016-09-18T07:02:50.263Z,124
2016-09-18T07:03:15.826Z,124
2016-09-18T07:03:41.365Z,124
2016-09-18T07:04:06.941Z,124
2016-09-18T07:04:32.513Z,124
2016-09-18T07:04:58.079Z,128
2016-09-18T07:06:11.498Z,124
2016-09-18T07:06:37.106Z,124
2016-09-18T07:07:02.662Z,124
2016-09-18T07:07:28.216Z,128
2016-09-18T07:07:53.782Z,124
2016-09-18T07:08:19.351Z,124
2016-09-18T07:08:44.938Z,124
2016-09-18T07:09:10.505Z,124
2016-09-18T07:09:36.068Z,128
2016-09-18T07:10:01.782Z,128
2016-09-18T07:10:27.454Z,128
2016-09-18T07:10:52.919Z,124
2016-09-18T07:11:18.601Z,128
2016-09-18T07:11:44.162Z,128
2016-09-18T07:12:09.738Z,128
2016-09-18T07:12:35.383Z,124
2016-09-18T07:13:00.939Z,128
2016-09-18T07:13:26.540Z,128
2016-09-18T07:13:52.119Z,132
2016-09-18T07:14:17.683Z,132
2016-09-18T07:14:43.236Z,128
2016-09-18T07:15:08.817Z,128
2016-09-18T09:43:33.868Z,256
2016-09-18T09:43:59.620Z,260
2016-09-18T09:44:25.180Z,268
2016-09-18T09:44:50.837Z,264
2016-09-18T09:45:16.411Z,268
2016-09-18T09:45:41.991Z,276
2016-09-18T09:46:07.565Z,276
2016-09-18T09:46:33.256Z,272
2016-09-18T09:46:58.948Z,280
2016-09-18T09:47:24.568Z,284
2016-09-18T09:47:50.192Z,288
2016-09-18T09:48:15.750Z,288
2016-09-18T09:48:41.304Z,288
2016-09-18T09:49:06.876Z,284
2016-09-18T09:49:32.422Z,276
2016-09-18T09:49:57.971Z,276
2016-09-18T09:50:23.695Z,276
2016-09-18T09:50:49.264Z,280
2016-09-18T09:51:14.874Z,280
2016-09-18T09:51:40.451Z,284
2016-09-18T09:52:06.004Z,280
2016-09-18T09:52:31.575Z,280
2016-09-18T09:52:57.182Z,280
2016-09-18T09:53:22.780Z,280
2016-09-18T09:53:48.350Z,272
2016-09-18T09:54:13.915Z,276
2016-09-18T09:54:39.487Z,280
2016-09-18T09:55:05.073Z,180
2016-09-18T09:55:30.661Z,160
2016-09-18T09:55:56.249Z,164
2016-09-18T09:56:21.975Z,164
2016-09-18T09:56:47.560Z,172
2016-09-18T09:57:13.212Z,288
2016-09-18T09:57:38.875Z,292
2016-09-18T09:58:04.460Z,296
2016-09-18T09:58:30.016Z,296
2016-09-18T09:58:55.566Z,296
2016-09-18T09:59:21.201Z,300
2016-09-18T09:59:46.771Z,300
2016-09-18T10:00:12.338Z,304
2016-09-18T10:00:37.943Z,300
2016-09-18T10:01:03.534Z,300
2016-09-18T10:01:29.122Z,304
2016-09-18T10:01:54.702Z,308
2016-09-18T10:02:20.305Z,308
2016-09-18T10:02:45.893Z,208
2016-09-18T10:03:11.472Z,312
2016-09-18T10:03:37.012Z,312
2016-09-18T10:04:02.579Z,316
2016-09-18T10:04:28.205Z,316
2016-09-18T10:04:53.823Z,320
2016-09-18T10:05:19.414Z,324
2016-09-18T10:05:45.015Z,320
2016-09-18T10:06:10.589Z,304
2016-09-18T10:06:36.215Z,320
2016-09-18T10:07:01.794Z,320
2016-09-18T10:07:27.356Z,324
2016-09-18T10:07:52.971Z,320
2016-09-18T10:08:18.649Z,324
2016-09-18T10:08:44.208Z,336
2016-09-18T10:09:09.797Z,340
2016-09-18T10:09:35.469Z,348
2016-09-18T10:10:01.050Z,352
2016-09-18T10:10:26.623Z,368
2016-09-18T10:10:52.202Z,376
2016-09-18T10:11:17.764Z,388
2016-09-18T10:11:43.344Z,396
2016-09-18T10:12:09.020Z,400
2016-09-18T10:12:34.601Z,408
2016-09-18T10:13:00.196Z,412
2016-09-18T10:13:25.759Z,408
2016-09-18T10:13:51.341Z,404
2016-09-18T10:14:17.056Z,400
2016-09-18T10:14:42.621Z,404
2016-09-18T10:15:08.202Z,400
2016-09-18T10:15:33.778Z,404
2016-09-18T10:15:59.455Z,404
2016-09-18T10:16:25.048Z,408
2016-09-18T10:16:50.627Z,356
2016-09-18T10:17:16.269Z,408
2016-09-18T10:17:41.812Z,444
2016-09-18T10:18:07.429Z,456
2016-09-18T10:18:33.127Z,464
2016-09-18T10:18:58.736Z,464
2016-09-18T10:19:24.347Z,476
2016-09-18T10:19:50.087Z,480
2016-09-18T10:20:15.663Z,464
2016-09-18T10:20:41.243Z,464
2016-09-18T10:21:06.817Z,456
2016-09-18T10:21:32.382Z,436
2016-09-18T10:21:57.982Z,452
2016-09-18T10:23:21.666Z,468
2016-09-18T10:23:47.257Z,476
2016-09-18T10:24:12.839Z,480
2016-09-18T10:24:38.411Z,492
2016-09-18T10:25:03.965Z,344
2016-09-18T10:25:29.528Z,292
2016-09-18T10:25:55.100Z,284
2016-09-18T10:26:20.644Z,504
2016-09-18T10:26:46.207Z,508
2016-09-18T10:27:11.755Z,516
2016-09-18T10:27:37.317Z,516
2016-09-18T10:28:02.862Z,520
2016-09-18T10:28:28.445Z,512
2016-09-18T10:28:54.096Z,504
2016-09-18T10:29:19.641Z,500
2016-09-18T10:29:45.223Z,500
2016-09-18T10:30:10.795Z,492
2016-09-18T10:30:36.353Z,488
2016-09-18T10:31:01.918Z,492
2016-09-18T10:31:27.476Z,468
2016-09-18T10:31:53.024Z,500
2016-09-18T10:32:18.658Z,528
2016-09-18T10:32:44.247Z,508
2016-09-18T10:33:09.872Z,508
2016-09-18T10:33:35.427Z,508
2016-09-18T10:34:00.973Z,512
2016-09-18T10:35:19.501Z,524
2016-09-18T10:35:45.056Z,532
2016-09-18T10:36:10.634Z,544
2016-09-18T10:36:36.196Z,556
2016-09-18T10:37:01.754Z,556
2016-09-18T10:37:27.304Z,556
2016-09-18T10:37:52.880Z,548
2016-09-18T10:38:18.432Z,544
2016-09-18T10:38:43.985Z,540
2016-09-18T10:39:09.574Z,532
2016-09-18T10:39:35.119Z,532
2016-09-18T10:40:00.693Z,536
2016-09-18T10:40:26.257Z,536
2016-09-18T10:40:51.858Z,556
2016-09-18T10:41:17.580Z,596
2016-09-18T10:41:43.137Z,544
2016-09-18T10:42:08.715Z,424
2016-09-18T10:42:34.287Z,556
2016-09-18T10:42:59.910Z,560
2016-09-18T10:43:25.479Z,568
2016-09-18T10:43:51.056Z,568
2016-09-18T10:45:14.788Z,576
2016-09-18T10:45:40.350Z,468
2016-09-18T10:46:53.852Z,624
2016-09-18T10:48:17.504Z,548
2016-09-18T10:50:24.982Z,256
2016-09-18T10:50:50.556Z,252
2016-09-18T10:51:16.141Z,252
2016-09-18T10:51:41.706Z,264
2016-09-18T10:52:07.266Z,260
2016-09-18T10:52:32.815Z,260
2016-09-18T10:52:58.411Z,268
2016-09-18T10:53:23.945Z,280
2016-09-18T10:53:49.542Z,316
2016-09-18T10:54:15.122Z,772
2016-09-18T10:54:40.708Z,356
2016-09-18T10:55:06.259Z,364
2016-09-18T10:55:31.814Z,672
2016-09-18T10:55:57.397Z,400
2016-09-18T10:56:22.960Z,760
2016-09-18T10:56:48.542Z,800
2016-09-18T10:57:14.123Z,864
2016-09-18T10:57:39.839Z,452
2016-09-18T10:58:05.495Z,872
2016-09-18T10:58:31.063Z,632
2016-09-18T10:58:56.632Z,448
2016-09-18T10:59:22.171Z,408
2016-09-18T10:59:47.809Z,380
2016-09-18T11:00:13.392Z,380
2016-09-18T11:00:39.045Z,348
2016-09-18T11:01:04.611Z,332
2016-09-18T11:01:30.233Z,324
2016-09-18T11:01:55.961Z,324
2016-09-18T11:02:21.532Z,332
2016-09-18T11:04:17.700Z,404
2016-09-18T11:04:43.277Z,956
2016-09-18T11:05:08.848Z,976
2016-09-18T11:05:34.416Z,468
2016-09-18T11:06:00.029Z,584
2016-09-18T11:06:25.588Z,316
2016-09-18T11:06:51.144Z,296
2016-09-18T11:07:16.750Z,280
2016-09-18T11:07:43.695Z,268
2016-09-18T11:08:09.266Z,264
2016-09-18T11:08:34.845Z,252
2016-09-18T11:09:00.418Z,248
2016-09-18T11:09:26.008Z,244
2016-09-18T11:09:51.565Z,408
2016-09-18T11:10:17.116Z,928
2016-09-18T11:10:42.687Z,968
2016-09-18T11:11:08.328Z,968
2016-09-18T11:11:33.885Z,976
2016-09-18T11:11:59.429Z,980
2016-09-18T11:12:25.689Z,996
2016-09-18T11:12:51.119Z,1004
2016-09-18T11:13:16.665Z,1000
2016-09-18T11:13:42.350Z,1008
2016-09-18T11:14:07.909Z,1012
2016-09-18T11:14:33.486Z,1020
2016-09-18T11:14:59.083Z,1036
2016-09-18T11:15:24.729Z,1040
2016-09-18T11:15:50.293Z,1060
2016-09-18T11:16:15.868Z,1076
2016-09-18T11:16:41.429Z,1088
2016-09-18T11:17:07.000Z,1096
2016-09-18T11:18:25.571Z,1152
2016-09-18T11:18:51.146Z,1156
2016-09-18T11:19:16.697Z,1160
2016-09-18T11:19:42.271Z,1172
2016-09-18T11:20:07.820Z,1164
2016-09-18T11:20:33.405Z,1176
2016-09-18T11:20:58.980Z,1208
2016-09-18T11:21:24.541Z,1196
2016-09-18T11:21:50.186Z,1208
2016-09-18T11:22:15.746Z,1204
2016-09-18T11:22:41.314Z,1228
2016-09-18T11:23:06.975Z,1228
2016-09-18T11:23:32.530Z,1232
2016-09-18T11:23:58.115Z,1236
2016-09-18T11:24:23.719Z,1240
2016-09-18T11:24:49.394Z,1240
2016-09-18T11:25:14.956Z,1252
2016-09-18T11:25:40.567Z,1244
2016-09-18T11:26:06.256Z,1256
2016-09-18T11:26:31.738Z,1268
2016-09-18T11:26:57.329Z,1280
2016-09-18T11:28:15.932Z,1320
2016-09-18T11:28:41.560Z,1336
2016-09-18T11:29:07.119Z,1332
2016-09-18T11:29:32.696Z,1328
2016-09-18T11:29:58.285Z,1320
2016-09-18T11:30:23.860Z,1332
2016-09-18T11:30:49.481Z,1336
2016-09-18T11:31:15.041Z,1356
2016-09-18T11:31:40.650Z,1388
2016-09-18T11:32:06.213Z,1428
2016-09-18T11:32:31.783Z,1408
2016-09-18T11:32:57.458Z,1420
2016-09-18T11:33:23.019Z,1436
2016-09-18T11:33:48.560Z,1448
2016-09-18T11:34:14.156Z,1464
2016-09-18T11:34:39.735Z,1468
2016-09-18T11:35:05.345Z,1476
2016-09-18T11:36:23.960Z,1236
2016-09-18T11:36:49.529Z,388
2016-09-18T11:37:15.121Z,492
2016-09-18T11:37:40.707Z,456
2016-09-18T11:38:06.254Z,380
2016-09-18T11:38:31.821Z,356
2016-09-18T11:38:57.411Z,404
2016-09-18T11:39:22.972Z,1504
2016-09-18T11:39:48.558Z,1572
2016-09-18T11:40:14.179Z,1572
2016-09-18T11:40:39.722Z,1608
2016-09-18T11:41:05.283Z,1580
2016-09-18T11:41:30.879Z,1576
2016-09-18T11:41:56.504Z,1568
2016-09-18T11:42:22.029Z,1572
2016-09-18T11:42:47.595Z,1584
2016-09-18T11:43:13.152Z,1588
2016-09-18T11:43:38.734Z,1608
2016-09-18T11:44:04.304Z,1612
2016-09-18T11:44:29.900Z,1648
2016-09-18T11:44:55.442Z,1724
2016-09-18T11:46:24.181Z,400
2016-09-18T11:46:49.823Z,396
2016-09-18T11:47:15.402Z,408
2016-09-18T11:48:18.668Z,400
2016-09-18T11:48:44.219Z,396
2016-09-18T11:49:09.762Z,392
2016-09-18T11:49:35.334Z,392
2016-09-18T11:50:01.030Z,412
2016-09-18T11:50:26.608Z,456
2016-09-18T11:50:52.166Z,1120
2016-09-18T11:51:17.759Z,816
2016-09-18T11:51:43.331Z,560
2016-09-18T11:52:08.891Z,1088
2016-09-18T11:52:34.444Z,540
2016-09-18T11:53:00.009Z,544
2016-09-18T11:55:16.655Z,400
2016-09-18T11:55:42.219Z,380
2016-09-18T11:56:07.829Z,364
2016-09-18T11:56:33.381Z,348
2016-09-18T11:56:59.002Z,340
2016-09-18T11:57:24.571Z,324
2016-09-18T11:57:50.116Z,316
2016-09-18T11:58:15.684Z,296
2016-09-18T11:58:41.389Z,284
2016-09-18T11:59:06.939Z,280
2016-09-18T11:59:32.505Z,276
2016-09-18T11:59:58.159Z,276
2016-09-18T12:00:23.719Z,268
2016-09-18T12:01:26.926Z,268
2016-09-18T12:01:52.466Z,272
2016-09-18T12:02:18.043Z,264
2016-09-18T12:02:43.654Z,264
2016-09-18T12:03:09.223Z,264
2016-09-18T12:03:34.840Z,256
2016-09-18T12:04:00.529Z,260
2016-09-18T12:04:26.274Z,256
2016-09-18T12:04:51.856Z,252
2016-09-18T12:05:17.432Z,244
2016-09-18T12:05:42.984Z,244
2016-09-18T12:06:08.549Z,244
2016-09-18T12:06:34.152Z,236
2016-09-18T12:06:59.718Z,236
2016-09-18T12:07:25.280Z,240
2016-09-18T12:07:50.875Z,240
2016-09-18T12:08:16.504Z,244
2016-09-18T12:09:19.699Z,244
2016-09-18T12:09:45.274Z,244
2016-09-18T12:10:10.841Z,248
2016-09-18T12:10:36.505Z,248
2016-09-18T12:11:02.207Z,252
2016-09-18T12:11:27.758Z,256
2016-09-18T12:11:53.376Z,260
2016-09-18T12:12:18.925Z,268
2016-09-18T12:12:44.535Z,276
2016-09-18T12:13:10.161Z,284
2016-09-18T12:13:35.716Z,292
2016-09-18T12:14:01.348Z,304
2016-09-18T12:14:26.978Z,308
2016-09-18T12:14:52.556Z,320
2016-09-18T12:15:18.099Z,332
2016-09-18T12:15:43.676Z,344
2016-09-18T12:16:09.273Z,348
2016-09-18T12:16:34.840Z,360
2016-09-18T12:17:00.478Z,380
2016-09-18T12:17:26.041Z,376
2016-09-18T12:17:51.671Z,364
2016-09-18T12:18:17.286Z,356
2016-09-18T12:18:42.858Z,344
2016-09-18T12:19:08.431Z,332
2016-09-18T12:19:33.994Z,320
2016-09-18T12:19:59.546Z,312
2016-09-18T12:20:25.151Z,300
2016-09-18T12:20:50.731Z,296
2016-09-18T12:21:16.318Z,292
2016-09-18T12:21:42.189Z,284
2016-09-18T12:22:07.765Z,276
2016-09-18T12:22:33.325Z,276
2016-09-18T12:22:58.982Z,272
2016-09-18T12:23:24.559Z,272
2016-09-18T12:23:50.155Z,272
2016-09-18T12:24:15.721Z,284
2016-09-18T12:24:41.337Z,296
2016-09-18T12:25:06.887Z,788
2016-09-18T12:25:32.443Z,2096
2016-09-18T12:25:58.006Z,2120
2016-09-18T12:26:23.590Z,2188
2016-09-18T12:26:49.162Z,2200
2016-09-18T12:27:14.745Z,2228
2016-09-18T12:27:40.319Z,2224
2016-09-18T12:28:05.895Z,2228
2016-09-18T12:28:31.485Z,2264
2016-09-18T12:28:57.026Z,2264
2016-09-18T12:29:22.593Z,2312
2016-09-18T12:29:48.148Z,2344
2016-09-18T12:30:13.700Z,2348
2016-09-18T12:30:39.277Z,2404
2016-09-18T12:31:04.824Z,1508
2016-09-18T12:31:30.371Z,736
2016-09-18T12:31:55.946Z,892
2016-09-18T12:32:21.505Z,548
2016-09-18T12:32:47.093Z,472
2016-09-18T12:33:12.669Z,444
2016-09-18T12:33:38.218Z,424
2016-09-18T12:34:03.809Z,412
2016-09-18T12:34:29.354Z,396
2016-09-18T12:34:54.938Z,384
2016-09-18T12:35:20.498Z,372
2016-09-18T12:35:46.079Z,364
2016-09-18T12:36:11.660Z,348
2016-09-18T12:37:25.077Z,308
2016-09-18T12:37:50.655Z,292
2016-09-18T12:38:16.281Z,284
2016-09-18T12:38:41.846Z,276
2016-09-18T12:39:07.483Z,268
2016-09-18T12:39:33.044Z,260
2016-09-18T12:39:58.588Z,252
2016-09-18T12:40:24.153Z,244
2016-09-18T12:40:49.762Z,236
2016-09-18T12:41:15.335Z,228
2016-09-18T12:41:40.936Z,228
2016-09-18T12:42:06.516Z,220
2016-09-18T12:42:32.090Z,216
2016-09-18T12:42:57.660Z,212
2016-09-18T12:43:23.215Z,208
2016-09-18T12:43:48.756Z,204
2016-09-18T12:44:14.307Z,204
2016-09-18T12:45:22.668Z,196
2016-09-18T12:45:48.208Z,200
2016-09-18T12:46:13.791Z,196
2016-09-18T12:46:39.379Z,196
2016-09-18T12:47:04.969Z,196
2016-09-18T12:48:18.393Z,196
2016-09-18T12:48:43.954Z,200
2016-09-18T12:49:09.522Z,200
2016-09-18T12:49:35.091Z,204
2016-09-18T12:50:00.641Z,212
2016-09-18T12:50:26.248Z,216
2016-09-18T12:50:51.841Z,228
2016-09-18T12:51:17.417Z,240
2016-09-18T12:51:43.074Z,260
2016-09-18T12:52:08.622Z,276
2016-09-18T12:52:34.225Z,300
2016-09-18T12:52:59.802Z,328
2016-09-18T12:53:25.392Z,360
2016-09-18T12:53:50.956Z,428
2016-09-18T12:54:16.510Z,516
2016-09-18T12:54:42.068Z,528
2016-09-18T12:55:07.623Z,608
2016-09-18T12:55:33.190Z,1384
2016-09-18T12:55:58.771Z,540
2016-09-18T12:56:24.349Z,508
2016-09-18T12:56:49.892Z,528
2016-09-18T12:57:15.454Z,564
2016-09-18T12:57:41.051Z,512
2016-09-18T12:58:06.625Z,484
2016-09-18T12:58:32.276Z,484
2016-09-18T12:58:57.839Z,496
2016-09-18T12:59:23.400Z,512
2016-09-18T12:59:49.034Z,532
2016-09-18T13:00:14.614Z,572
2016-09-18T13:00:40.186Z,892
2016-09-18T13:01:05.766Z,1260
2016-09-18T13:01:31.420Z,1872
2016-09-18T13:01:56.973Z,1016
2016-09-18T13:02:22.535Z,1124
2016-09-18T13:02:48.089Z,828
2016-09-18T13:03:13.758Z,760
2016-09-18T13:03:39.326Z,808
2016-09-18T13:04:05.827Z,700
2016-09-18T13:04:31.437Z,680
2016-09-18T13:04:57.117Z,692
2016-09-18T13:05:22.713Z,724
2016-09-18T13:05:48.294Z,764
2016-09-18T13:06:13.867Z,760
2016-09-18T13:06:39.429Z,804
2016-09-18T13:07:05.018Z,716
2016-09-18T13:07:30.584Z,664
2016-09-18T13:07:56.152Z,652
2016-09-18T13:08:21.720Z,608
2016-09-18T13:08:47.306Z,580
2016-09-18T13:09:12.895Z,548
2016-09-18T13:09:38.478Z,540
2016-09-18T13:10:04.062Z,532
2016-09-18T13:10:29.645Z,516
2016-09-18T13:10:55.220Z,512
2016-09-18T13:11:20.777Z,584
2016-09-18T13:11:46.357Z,596
2016-09-18T13:12:11.935Z,844
2016-09-18T13:12:37.500Z,632
2016-09-18T13:13:03.079Z,624
2016-09-18T13:14:21.702Z,896
2016-09-18T13:14:47.288Z,1148
2016-09-18T13:15:12.862Z,2240
2016-09-18T13:16:26.265Z,2392
2016-09-18T13:16:51.885Z,3216
2016-09-18T13:17:17.743Z,1344
2016-09-18T13:17:43.315Z,960
2016-09-18T13:18:08.874Z,1016
2016-09-18T13:18:35.063Z,1700
2016-09-18T13:19:00.718Z,1244
2016-09-18T13:19:26.384Z,1196
2016-09-18T13:19:52.018Z,1024
2016-09-18T13:20:17.589Z,952
2016-09-18T13:20:43.145Z,980
2016-09-18T13:21:08.716Z,904
2016-09-18T13:21:34.264Z,824
2016-09-18T13:21:59.829Z,1072
2016-09-18T13:22:25.392Z,824
2016-09-18T13:22:50.963Z,832
2016-09-18T13:23:16.545Z,848
2016-09-18T13:23:42.096Z,836
2016-09-18T13:24:07.691Z,916
2016-09-18T13:24:33.258Z,884
2016-09-18T13:24:58.784Z,844
2016-09-18T13:25:24.343Z,868
2016-09-18T13:25:49.901Z,900
2016-09-18T13:26:15.463Z,788
2016-09-18T13:26:41.075Z,776
2016-09-18T13:27:06.644Z,796
2016-09-18T13:27:32.244Z,984
2016-09-18T13:27:57.796Z,1132
2016-09-18T13:28:23.572Z,1304
2016-09-18T13:28:49.004Z,1124
2016-09-18T13:29:14.665Z,976
2016-09-18T13:29:40.293Z,956
2016-09-18T13:30:05.871Z,1064
2016-09-18T13:30:31.430Z,852
2016-09-18T13:30:56.991Z,1988
2016-09-18T13:31:22.537Z,1096
2016-09-18T13:31:48.408Z,736
2016-09-18T13:32:14.016Z,772
2016-09-18T13:32:39.578Z,952
2016-09-18T13:33:05.131Z,952
2016-09-18T13:33:30.692Z,2380
2016-09-18T13:33:56.298Z,956
2016-09-18T13:34:21.867Z,1068
2016-09-18T13:34:47.446Z,1620
2016-09-18T13:35:13.001Z,1328
2016-09-18T13:35:38.635Z,1492
2016-09-18T13:36:04.217Z,1260
2016-09-18T13:36:29.789Z,2332
2016-09-18T13:36:55.557Z,1632
2016-09-18T13:37:21.147Z,1996
2016-09-18T13:37:46.713Z,1040
2016-09-18T13:38:12.420Z,1368
2016-09-18T13:38:38.016Z,1928
2016-09-18T13:39:03.582Z,1344
2016-09-18T13:39:29.185Z,1276
2016-09-18T13:39:54.763Z,1000
2016-09-18T13:40:20.335Z,1020
2016-09-18T13:40:45.912Z,1180
2016-09-18T13:41:11.519Z,2140
2016-09-18T13:41:37.111Z,1912
2016-09-18T13:42:02.686Z,1428
2016-09-18T13:42:28.270Z,1348
2016-09-18T13:42:53.872Z,1940
2016-09-18T13:43:19.434Z,3320
2016-09-18T13:43:45.009Z,900
2016-09-18T13:44:10.660Z,832
2016-09-18T13:44:36.245Z,840
2016-09-18T13:45:01.821Z,872
2016-09-18T13:45:27.343Z,916
2016-09-18T13:45:52.924Z,1640
2016-09-18T13:46:18.479Z,888
2016-09-18T13:46:44.047Z,832
2016-09-18T13:47:09.604Z,1164
2016-09-18T13:47:35.165Z,1116
2016-09-18T13:48:00.706Z,2412
2016-09-18T13:48:26.316Z,824
2016-09-18T13:48:51.874Z,880
2016-09-18T13:49:17.460Z,896
2016-09-18T13:49:43.038Z,1004
2016-09-18T13:50:08.620Z,1348
2016-09-18T13:50:34.199Z,2360
2016-09-18T13:50:59.765Z,1520
2016-09-18T13:51:25.317Z,1164
2016-09-18T13:51:50.909Z,1296
2016-09-18T13:52:16.576Z,900
2016-09-18T13:52:42.153Z,908
2016-09-18T13:53:07.764Z,1012
2016-09-18T13:53:33.391Z,1252
2016-09-18T13:53:58.974Z,1012
2016-09-18T13:54:24.534Z,924
2016-09-18T13:54:50.116Z,916
2016-09-18T13:55:15.735Z,904
2016-09-18T13:55:41.301Z,888
2016-09-18T13:56:06.960Z,948
2016-09-18T13:56:32.531Z,812
2016-09-18T13:56:58.108Z,744
2016-09-18T13:57:23.667Z,736
2016-09-18T13:57:49.239Z,772
2016-09-18T13:58:14.814Z,788
2016-09-18T13:58:40.561Z,860
2016-09-18T13:59:06.149Z,788
2016-09-18T13:59:31.718Z,752
2016-09-18T13:59:57.320Z,732
2016-09-18T14:00:22.919Z,728
2016-09-18T14:00:48.518Z,760
2016-09-18T14:01:14.127Z,832
2016-09-18T14:01:39.691Z,960
2016-09-18T14:02:05.408Z,872
2016-09-18T14:02:30.980Z,932
2016-09-18T14:02:56.546Z,808
2016-09-18T14:03:22.116Z,764
2016-09-18T14:04:25.313Z,760
2016-09-18T14:04:50.871Z,800
2016-09-18T14:05:16.559Z,868
2016-09-18T14:05:42.233Z,912
2016-09-18T14:06:07.801Z,924
2016-09-18T14:06:33.412Z,952
2016-09-18T14:06:58.973Z,1072
2016-09-18T14:07:24.535Z,900
2016-09-18T14:07:50.092Z,1168
2016-09-18T14:08:15.674Z,1516
2016-09-18T14:08:41.350Z,1096
2016-09-18T14:09:06.902Z,1328
2016-09-18T14:09:32.513Z,968
2016-09-18T14:09:58.077Z,968
2016-09-18T14:10:23.803Z,1008
2016-09-18T14:10:49.355Z,988
2016-09-18T14:11:15.003Z,1268
2016-09-18T14:11:40.553Z,2248
2016-09-18T14:12:06.114Z,992
2016-09-18T14:12:31.678Z,880
2016-09-18T14:12:57.372Z,896
2016-09-18T14:13:22.941Z,968
2016-09-18T14:13:48.560Z,808
2016-09-18T14:14:14.117Z,788
2016-09-18T14:14:39.669Z,740
2016-09-18T14:15:05.227Z,788
2016-09-18T14:15:30.805Z,1548
2016-09-18T14:15:56.546Z,988
2016-09-18T14:16:22.098Z,1024
2016-09-18T14:16:47.682Z,916
2016-09-18T14:17:13.248Z,1096
2016-09-18T14:17:38.806Z,1240
2016-09-18T14:18:04.362Z,2060
2016-09-18T14:18:29.933Z,1296
2016-09-18T14:18:55.472Z,964
2016-09-18T14:19:21.078Z,948
2016-09-18T14:19:46.661Z,908
2016-09-18T14:20:12.206Z,828
2016-09-18T14:20:37.893Z,776
2016-09-18T14:21:03.439Z,736
2016-09-18T14:21:29.030Z,1016
2016-09-18T14:21:54.743Z,2504
2016-09-18T14:22:20.318Z,1328
2016-09-18T14:22:45.893Z,868
2016-09-18T14:23:11.554Z,1412
2016-09-18T14:23:37.128Z,1140
2016-09-18T14:24:02.659Z,852
2016-09-18T14:24:28.205Z,856
2016-09-18T14:24:53.764Z,900
2016-09-18T14:25:19.316Z,1868
2016-09-18T14:25:44.875Z,1036
2016-09-18T14:26:10.553Z,820
2016-09-18T14:26:36.090Z,784
2016-09-18T14:27:01.654Z,876
2016-09-18T14:27:27.181Z,952
2016-09-18T14:27:52.730Z,732
2016-09-18T14:28:18.334Z,700
2016-09-18T14:28:43.894Z,652
2016-09-18T14:29:09.474Z,612
2016-09-18T14:29:35.029Z,628
2016-09-18T14:30:00.676Z,636
2016-09-18T14:30:26.225Z,608
2016-09-18T14:30:51.764Z,648
2016-09-18T14:31:17.441Z,700
2016-09-18T14:31:42.990Z,648
2016-09-18T14:32:08.662Z,656
2016-09-18T14:32:34.415Z,708
2016-09-18T14:32:59.939Z,780
2016-09-18T14:33:25.518Z,1760
2016-09-18T14:33:51.082Z,732
2016-09-18T14:34:16.661Z,676
2016-09-18T14:34:42.201Z,636
2016-09-18T14:35:07.812Z,640
2016-09-18T14:35:33.493Z,660
2016-09-18T14:35:59.279Z,752
2016-09-18T14:36:24.855Z,704
2016-09-18T14:36:50.482Z,668
2016-09-18T14:37:16.061Z,676
2016-09-18T14:37:41.740Z,652
2016-09-18T14:38:07.366Z,616
2016-09-18T14:39:20.770Z,632
2016-09-18T14:39:46.332Z,652